Time;durP1;ratioP1;P1;durP2;ratioP2;P2;SDS_P1;SDS_P2;PMS_P1;PMS_P2;Temp;Humidity;BMP_temperature;BMP_pressure;BME280_temperature;BME280_humidity;BME280_pressure;Samples;Min_cycle;Max_cycle;Signal;HPM_P1;HPM_P2
2022/08/21 00:01:39;;;;;;;13.48;9.70;;;;;;;19.50;100.00;93972.59;5033839;28;20189;-65
2022/08/21 00:04:06;;;;;;;12.25;8.73;;;;;;;19.50;100.00;93973.41;5033772;28;20773;-63
2022/08/21 00:06:33;;;;;;;10.88;8.13;;;;;;;19.50;100.00;93963.09;5051567;28;20213;-60
2022/08/21 00:08:59;;;;;;;11.70;8.15;;;;;;;19.56;100.00;93964.06;5051676;28;20217;-64
2022/08/21 00:11:26;;;;;;;12.43;8.23;;;;;;;19.43;100.00;93954.59;5034134;28;20674;-59
2022/08/21 00:13:52;;;;;;;14.98;9.60;;;;;;;19.42;100.00;93952.97;5052034;28;20205;-63
2022/08/21 00:16:18;;;;;;;13.80;8.63;;;;;;;19.40;100.00;93949.00;5051811;28;20276;-63
2022/08/21 00:18:44;;;;;;;14.90;10.55;;;;;;;19.39;100.00;93962.91;5033911;28;20562;-62
2022/08/21 00:21:14;;;;;;;15.85;11.23;;;;;;;19.37;100.00;93957.16;5051491;28;20185;-61
2022/08/21 00:23:40;;;;;;;15.50;10.85;;;;;;;19.45;100.00;93954.38;5051654;28;20202;-60
2022/08/21 00:26:06;;;;;;;20.13;11.23;;;;;;;19.31;100.00;93945.03;5051390;28;20213;-63
2022/08/21 00:28:31;;;;;;;12.50;10.27;;;;;;;19.08;100.00;93953.19;5051498;28;20291;-63
2022/08/21 00:30:57;;;;;;;13.82;9.82;;;;;;;19.13;100.00;93955.94;5051567;28;20177;-62
2022/08/21 00:33:23;;;;;;;14.43;9.40;;;;;;;19.16;100.00;93950.41;5051127;28;20193;-63
2022/08/21 00:35:49;;;;;;;16.23;9.82;;;;;;;19.22;100.00;93942.66;5051270;28;20268;-63
2022/08/21 00:38:15;;;;;;;15.25;8.45;;;;;;;19.37;100.00;93936.53;5051448;28;20217;-60
2022/08/21 00:40:54;;;;;;;13.20;8.85;;;;;;;19.53;100.00;93942.06;5051316;28;20223;-63
2022/08/21 00:43:24;;;;;;;12.55;8.75;;;;;;;19.76;100.00;93950.13;5051435;28;20190;-61
2022/08/21 00:45:50;;;;;;;13.00;8.80;;;;;;;19.36;100.00;93956.38;5050958;28;20667;-59
2022/08/21 00:48:16;;;;;;;11.77;8.68;;;;;;;19.47;100.00;93948.03;5033141;28;20201;-62
2022/08/21 00:50:52;;;;;;;12.73;7.45;;;;;;;19.46;100.00;93950.78;5016740;28;20284;-62
2022/08/21 00:53:18;;;;;;;12.70;8.00;;;;;;;19.40;100.00;93952.38;5051219;28;20185;-60
2022/08/21 00:55:45;;;;;;;15.18;8.43;;;;;;;19.43;100.00;93952.00;5051193;28;20200;-63
2022/08/21 00:58:14;;;;;;;13.35;6.95;;;;;;;19.42;100.00;93949.59;5051339;28;20190;-61
2022/08/21 01:00:42;;;;;;;9.93;6.72;;;;;;;19.49;100.00;93948.63;5050933;28;20577;-63
2022/08/21 01:03:12;;;;;;;8.80;7.13;;;;;;;19.65;100.00;93944.81;5033102;28;20346;-61
2022/08/21 01:05:38;;;;;;;9.35;6.45;;;;;;;19.57;100.00;93939.88;5050886;28;20299;-61
2022/08/21 01:08:04;;;;;;;8.80;5.28;;;;;;;19.49;100.00;93935.72;5051014;28;20579;-63
2022/08/21 01:10:31;;;;;;;7.25;4.90;;;;;;;19.41;100.00;93932.56;5033149;28;20197;-63
2022/08/21 01:12:57;;;;;;;7.22;5.93;;;;;;;19.28;100.00;93926.41;5032915;28;20244;-63
2022/08/21 01:15:31;;;;;;;9.90;6.32;;;;;;;19.31;100.00;93925.19;5051062;28;20205;-63
2022/08/21 01:17:57;;;;;;;9.35;6.32;;;;;;;19.46;100.00;93928.38;5051099;28;20193;-63
2022/08/21 01:20:23;;;;;;;11.93;6.60;;;;;;;19.53;100.00;93938.69;5050745;28;20213;-62
2022/08/21 01:22:48;;;;;;;10.20;8.05;;;;;;;19.65;100.00;93942.25;5050858;28;20231;-64
2022/08/21 01:25:21;;;;;;;11.25;6.53;;;;;;;19.54;100.00;93923.00;5050576;28;20208;-64
2022/08/21 01:27:48;;;;;;;10.98;7.40;;;;;;;19.63;100.00;93924.41;5050980;28;20185;-63
2022/08/21 01:30:17;;;;;;;14.05;8.25;;;;;;;19.76;100.00;93926.13;5050608;28;20581;-60
2022/08/21 01:32:44;;;;;;;13.40;8.77;;;;;;;19.69;100.00;93918.44;5050630;28;20605;-62
2022/08/21 01:35:12;;;;;;;16.48;8.77;;;;;;;19.72;100.00;93923.16;5050654;28;20205;-64
2022/08/21 01:37:38;;;;;;;15.63;10.90;;;;;;;19.60;100.00;93926.56;5050482;28;20181;-64
2022/08/21 01:40:06;;;;;;;13.90;10.18;;;;;;;19.36;100.00;93925.44;5032830;28;20221;-62
2022/08/21 01:42:31;;;;;;;21.50;12.93;;;;;;;19.25;100.00;93933.72;5050451;28;20243;-63
2022/08/21 01:44:58;;;;;;;17.95;12.60;;;;;;;19.27;100.00;93927.38;5050526;28;20209;-63
2022/08/21 01:47:23;;;;;;;20.35;12.05;;;;;;;19.24;100.00;93916.69;5052075;28;20213;-63
2022/08/21 01:49:49;;;;;;;22.48;12.80;;;;;;;19.44;100.00;93932.16;5054226;28;20335;-61
2022/08/21 01:52:15;;;;;;;22.98;13.20;;;;;;;19.52;100.00;93925.00;5054010;28;20639;-62
2022/08/21 01:54:41;;;;;;;23.90;12.43;;;;;;;19.69;100.00;93927.94;5053992;28;20212;-62
2022/08/21 01:57:08;;;;;;;19.52;12.77;;;;;;;19.75;100.00;93927.13;5035914;28;20189;-62
2022/08/21 01:59:34;;;;;;;22.13;13.65;;;;;;;19.74;100.00;93936.66;5054097;28;20209;-59
2022/08/21 02:02:00;;;;;;;19.33;12.48;;;;;;;19.63;100.00;93936.50;5052645;28;20689;-62
2022/08/21 02:04:26;;;;;;;18.45;11.75;;;;;;;19.42;100.00;93934.94;5036163;28;20601;-63
2022/08/21 02:06:52;;;;;;;15.98;10.00;;;;;;;19.51;100.00;93922.63;5052395;28;20210;-63
2022/08/21 02:09:18;;;;;;;15.82;10.73;;;;;;;19.45;100.00;93934.56;5054032;28;20587;-64
2022/08/21 02:11:43;;;;;;;14.48;9.43;;;;;;;19.21;100.00;93932.53;5053553;28;20186;-61
2022/08/21 02:14:14;;;;;;;18.50;10.05;;;;;;;19.14;100.00;93942.06;5053946;28;20205;-62
2022/08/21 02:16:42;;;;;;;17.20;9.95;;;;;;;19.27;100.00;93945.44;5053768;28;20614;-62
2022/08/21 02:19:08;;;;;;;14.32;9.52;;;;;;;19.43;100.00;93936.53;5053499;28;20202;-63
2022/08/21 02:21:34;;;;;;;16.30;10.02;;;;;;;19.42;100.00;93940.09;5053695;28;20190;-64
2022/08/21 02:23:59;;;;;;;14.85;9.85;;;;;;;19.17;100.00;93937.31;5053469;28;20279;-61
2022/08/21 02:26:25;;;;;;;16.00;10.25;;;;;;;19.34;100.00;93936.94;5053509;28;20220;-63
2022/08/21 02:28:51;;;;;;;17.25;10.43;;;;;;;19.38;100.00;93953.56;5052089;28;20209;-64
2022/08/21 02:31:17;;;;;;;15.05;10.82;;;;;;;19.37;100.00;93955.38;5053413;28;20194;-63
2022/08/21 02:33:42;;;;;;;17.95;10.50;;;;;;;19.35;100.00;93959.94;5053465;28;20233;-62
2022/08/21 02:36:09;;;;;;;22.25;10.88;;;;;;;19.38;100.00;93954.38;5053399;28;20189;-63
2022/08/21 02:38:39;;;;;;;18.42;11.30;;;;;;;19.26;100.00;93958.53;5053322;28;20216;-62
2022/08/21 02:41:07;;;;;;;18.52;9.82;;;;;;;19.17;100.00;93954.53;5053232;28;20217;-62
2022/08/21 02:43:33;;;;;;;18.08;11.25;;;;;;;19.12;100.00;93949.22;5053302;28;20242;-64
2022/08/21 02:45:59;;;;;;;10.73;7.50;;;;;;;19.12;100.00;93949.22;5053214;28;20243;-61
2022/08/21 02:48:28;;;;;;;13.65;8.48;;;;;;;19.10;100.00;93940.88;5053019;28;20220;-63
2022/08/21 02:51:04;;;;;;;14.85;8.13;;;;;;;19.27;100.00;93949.78;5053133;28;20185;-62
2022/08/21 02:53:30;;;;;;;14.52;7.90;;;;;;;19.16;100.00;93956.34;5053235;28;20201;-64
2022/08/21 02:55:58;;;;;;;10.00;7.18;;;;;;;19.11;100.00;93955.34;5035321;28;20725;-64
2022/08/21 02:58:33;;;;;;;10.68;6.47;;;;;;;19.17;100.00;93964.84;5053009;28;20190;-60
2022/08/21 03:01:00;;;;;;;11.50;6.75;;;;;;;19.13;100.00;93961.09;5053235;28;20201;-63
2022/08/21 03:03:27;;;;;;;12.30;6.60;;;;;;;19.15;100.00;93959.09;5035125;28;20691;-63
2022/08/21 03:05:53;;;;;;;8.52;6.05;;;;;;;19.10;100.00;93953.78;5053056;28;20218;-62
2022/08/21 03:08:20;;;;;;;9.48;6.25;;;;;;;19.09;100.00;93960.69;5052931;28;20337;-64
2022/08/21 03:10:50;;;;;;;11.27;5.72;;;;;;;19.12;100.00;93954.38;5053026;28;20268;-64
2022/08/21 03:13:17;;;;;;;11.73;6.20;;;;;;;18.93;100.00;93950.00;5052941;28;20185;-60
2022/08/21 03:15:43;;;;;;;10.88;5.22;;;;;;;19.05;100.00;93951.78;5052666;28;20204;-62
2022/08/21 03:18:10;;;;;;;9.38;4.97;;;;;;;19.02;100.00;93959.13;5052710;28;20264;-60
2022/08/21 03:20:36;;;;;;;7.32;4.53;;;;;;;18.98;100.00;93948.44;5052709;28;20282;-63
2022/08/21 03:23:03;;;;;;;7.47;4.65;;;;;;;18.89;100.00;93939.28;5052640;28;20275;-63
2022/08/21 03:25:31;;;;;;;10.02;5.07;;;;;;;18.95;100.00;93953.97;5034966;28;20221;-62
2022/08/21 03:27:58;;;;;;;5.50;4.70;;;;;;;19.07;100.00;93959.31;5052505;28;20182;-63
2022/08/21 03:30:23;;;;;;;7.68;4.45;;;;;;;18.97;100.00;93949.41;5040695;22;20618;-63
2022/08/21 03:32:48;;;;;;;9.63;4.93;;;;;;;19.06;100.00;93947.44;5052527;28;20204;-62
2022/08/21 03:35:14;;;;;;;8.23;4.22;;;;;;;19.15;100.00;93953.94;5052567;28;20205;-60
2022/08/21 03:37:40;;;;;;;5.80;4.40;;;;;;;19.11;100.00;93952.75;5052417;28;20197;-62
2022/08/21 03:40:08;;;;;;;11.70;4.38;;;;;;;19.21;100.00;93958.31;5052470;28;20279;-62
2022/08/21 03:42:34;;;;;;;8.90;3.97;;;;;;;19.15;100.00;93962.47;5034388;28;20268;-60
2022/08/21 03:45:00;;;;;;;6.80;4.72;;;;;;;19.16;100.00;93960.72;5052511;28;20293;-61
2022/08/21 03:47:25;;;;;;;8.40;3.80;;;;;;;19.12;100.00;93951.78;5052272;28;20749;-60
2022/08/21 03:49:51;;;;;;;9.77;4.90;;;;;;;19.17;100.00;93952.78;5052434;28;20216;-60
2022/08/21 03:52:17;;;;;;;7.85;4.35;;;;;;;19.10;100.00;93949.41;5052432;28;20198;-61
2022/08/21 03:54:43;;;;;;;7.95;4.30;;;;;;;19.13;100.00;93956.72;5034499;28;20303;-63
2022/08/21 03:57:10;;;;;;;11.73;4.15;;;;;;;19.16;100.00;93960.72;5052466;28;20250;-62
2022/08/21 03:59:36;;;;;;;8.82;5.13;;;;;;;19.05;100.00;93958.72;5034289;28;20266;-61
2022/08/21 04:02:05;;;;;;;10.45;6.07;;;;;;;19.13;100.00;93961.88;5052111;28;20185;-63
2022/08/21 04:04:31;;;;;;;12.05;6.43;;;;;;;19.08;100.00;93958.34;5034372;28;20228;-64
2022/08/21 04:06:57;;;;;;;14.95;7.72;;;;;;;19.07;100.00;93962.69;5051941;28;20205;-63
2022/08/21 04:09:30;;;;;;;15.38;7.55;;;;;;;19.15;100.00;93972.00;5051243;28;20217;-60
2022/08/21 04:11:56;;;;;;;11.30;7.13;;;;;;;18.91;100.00;93964.84;5034056;28;20197;-62
2022/08/21 04:14:22;;;;;;;15.13;8.88;;;;;;;18.87;100.00;93966.22;5052392;28;20205;-62
2022/08/21 04:16:48;;;;;;;15.43;7.65;;;;;;;18.86;100.00;93956.94;5034182;28;20204;-63
2022/08/21 04:19:14;;;;;;;12.73;7.75;;;;;;;19.11;100.00;93968.22;5051959;28;20642;-63
2022/08/21 04:21:40;;;;;;;10.60;7.97;;;;;;;19.19;100.00;93961.09;5051774;28;20186;-62
2022/08/21 04:24:07;;;;;;;12.02;7.78;;;;;;;19.21;100.00;93960.88;5051682;28;20209;-62
2022/08/21 04:26:34;;;;;;;10.07;7.43;;;;;;;19.09;100.00;93962.47;5051567;28;20241;-60
2022/08/21 04:29:00;;;;;;;10.93;7.88;;;;;;;19.01;100.00;93962.66;5051921;28;20209;-63
2022/08/21 04:31:28;;;;;;;12.32;7.45;;;;;;;19.17;100.00;93973.38;5051528;28;20193;-62
2022/08/21 04:33:54;;;;;;;12.20;8.20;;;;;;;19.14;100.00;93967.84;5051821;28;20292;-61
2022/08/21 04:36:19;;;;;;;12.18;9.05;;;;;;;19.06;100.00;93973.19;5051482;28;20704;-62
2022/08/21 04:38:45;;;;;;;10.82;7.25;;;;;;;18.94;100.00;93962.69;5051753;28;20699;-62
2022/08/21 04:41:11;;;;;;;13.13;7.60;;;;;;;18.84;100.00;93949.41;5051531;28;20651;-64
2022/08/21 04:43:37;;;;;;;11.48;8.10;;;;;;;18.90;100.00;93953.78;5051405;28;20270;-62
2022/08/21 04:46:03;;;;;;;9.30;7.30;;;;;;;18.96;100.00;93965.88;5033331;28;20245;-60
2022/08/21 04:48:28;;;;;;;10.35;6.97;;;;;;;18.90;100.00;93960.69;5051434;28;20342;-63
2022/08/21 04:51:11;;;;;;;13.40;7.65;;;;;;;18.87;100.00;93955.94;5033579;28;20181;-60
2022/08/21 04:53:50;;;;;;;10.52;6.63;;;;;;;18.91;100.00;93962.28;5051571;28;20212;-62
2022/08/21 04:56:31;;;;;;;18.23;8.02;;;;;;;18.98;100.00;93960.50;5033370;28;20235;-62
2022/08/21 04:58:59;;;;;;;11.23;6.75;;;;;;;18.91;100.00;93952.75;5051700;28;20590;-62
2022/08/21 05:01:28;;;;;;;10.90;7.28;;;;;;;19.00;100.00;93951.59;5051377;28;20295;-60
2022/08/21 05:03:58;;;;;;;12.38;6.85;;;;;;;19.00;100.00;93950.78;5051322;28;20216;-60
2022/08/21 05:06:24;;;;;;;12.82;5.97;;;;;;;19.20;100.00;93956.75;5051113;28;20214;-63
2022/08/21 05:08:55;;;;;;;10.60;5.93;;;;;;;19.20;100.00;93951.59;5033384;28;20225;-64
2022/08/21 05:11:21;;;;;;;7.40;5.60;;;;;;;19.20;100.00;93949.00;5051223;28;20549;-62
2022/08/21 05:13:48;;;;;;;6.63;4.50;;;;;;;19.30;100.00;93964.88;5032525;28;20306;-62
2022/08/21 05:16:13;;;;;;;7.82;4.00;;;;;;;19.30;100.00;93964.88;5050901;28;20272;-64
2022/08/21 05:18:39;;;;;;;10.18;4.32;;;;;;;19.34;100.00;93955.78;5051283;28;20209;-61
2022/08/21 05:21:04;;;;;;;3.92;3.13;;;;;;;19.58;100.00;93962.06;5050765;28;20568;-62
2022/08/21 05:23:30;;;;;;;7.90;3.45;;;;;;;19.73;100.00;93955.72;5050795;28;20209;-62
2022/08/21 05:25:55;;;;;;;9.20;4.20;;;;;;;19.75;100.00;93953.72;5032964;28;20217;-63
2022/08/21 05:28:21;;;;;;;6.72;4.85;;;;;;;19.72;100.00;93954.13;5050718;28;20299;-62
2022/08/21 05:30:47;;;;;;;8.13;6.00;;;;;;;19.94;100.00;93970.13;5050889;28;20181;-62
2022/08/21 05:33:13;;;;;;;6.85;5.18;;;;;;;19.90;100.00;93963.78;5050869;28;20231;-63
2022/08/21 05:35:39;;;;;;;9.38;6.05;;;;;;;19.99;100.00;93967.75;5050729;28;20268;-63
2022/08/21 05:38:05;;;;;;;8.52;5.40;;;;;;;20.12;100.00;93964.31;5050674;28;20596;-62
2022/08/21 05:40:31;;;;;;;10.50;5.78;;;;;;;20.00;100.00;93949.47;5050712;28;20186;-63
2022/08/21 05:42:58;;;;;;;8.75;5.85;;;;;;;20.03;100.00;93943.91;5050646;28;20726;-60
2022/08/21 05:45:30;;;;;;;9.95;5.90;;;;;;;20.08;100.00;93944.06;5050518;28;20206;-61
2022/08/21 05:47:55;;;;;;;10.45;6.20;;;;;;;20.27;100.00;93942.44;5050695;28;20235;-63
2022/08/21 05:50:21;;;;;;;10.07;6.20;;;;;;;20.43;100.00;93947.13;5050488;28;20699;-62
2022/08/21 05:52:46;;;;;;;9.27;5.97;;;;;;;20.62;100.00;93951.41;5032617;28;20250;-62
2022/08/21 05:55:12;;;;;;;8.50;6.13;;;;;;;20.75;100.00;93946.13;5032885;28;20267;-62
2022/08/21 05:57:40;;;;;;;9.52;5.63;;;;;;;20.83;100.00;93943.28;5032674;28;20260;-60
2022/08/21 06:00:12;;;;;;;10.45;6.20;;;;;;;20.98;100.00;93948.16;5050404;28;20321;-60
2022/08/21 06:02:37;;;;;;;10.73;6.90;;;;;;;20.74;100.00;93933.44;5050658;28;20178;-63
2022/08/21 06:05:03;;;;;;;12.50;6.97;;;;;;;20.66;100.00;93946.59;5050549;28;20703;-62
2022/08/21 06:07:28;;;;;;;11.40;7.60;;;;;;;20.64;100.00;93944.22;5050361;28;20201;-65
2022/08/21 06:09:54;;;;;;;10.90;7.85;;;;;;;20.75;100.00;93950.50;5050270;28;20209;-63
2022/08/21 06:12:19;;;;;;;10.40;7.53;;;;;;;20.75;100.00;93938.38;5050301;28;20239;-61
2022/08/21 06:14:44;;;;;;;9.27;6.75;;;;;;;20.63;100.00;93939.25;5050780;28;20779;-61
2022/08/21 06:17:12;;;;;;;10.95;6.90;;;;;;;20.58;100.00;93936.50;5032339;28;20200;-63
2022/08/21 06:19:38;;;;;;;11.18;6.45;;;;;;;20.69;100.00;93949.56;5050538;28;20209;-62
2022/08/21 06:22:04;;;;;;;11.75;6.22;;;;;;;20.71;100.00;93950.13;5050319;28;20575;-61
2022/08/21 06:24:29;;;;;;;8.93;6.20;;;;;;;20.71;100.00;93941.59;5050393;28;20592;-62
2022/08/21 06:26:56;;;;;;;9.85;6.45;;;;;;;20.91;100.00;93953.38;5050138;28;20209;-61
2022/08/21 06:29:22;;;;;;;9.73;7.90;;;;;;;20.95;100.00;93953.75;5050451;28;20220;-61
2022/08/21 06:31:50;;;;;;;10.57;6.38;;;;;;;20.82;100.00;93952.06;5050382;28;20182;-63
2022/08/21 06:34:16;;;;;;;7.88;5.88;;;;;;;20.72;100.00;93938.00;5053354;28;20300;-60
2022/08/21 06:36:41;;;;;;;8.32;7.20;;;;;;;20.93;100.00;93960.91;5053369;28;20181;-61
2022/08/21 06:39:07;;;;;;;12.73;6.95;;;;;;;21.03;100.00;93952.75;5035492;28;20597;-62
2022/08/21 06:41:33;;;;;;;11.60;7.88;;;;;;;21.17;100.00;93957.56;5035469;28;20595;-63
2022/08/21 06:43:58;;;;;;;15.70;6.70;;;;;;;21.44;100.00;93966.72;5035390;28;20294;-61
2022/08/21 06:46:27;;;;;;;11.00;6.40;;;;;;;21.67;100.00;93984.22;5035408;28;20220;-62
2022/08/21 06:48:53;;;;;;;8.90;6.70;;;;;;;21.70;100.00;93989.75;5035320;28;20713;-59
2022/08/21 06:51:19;;;;;;;11.55;7.45;;;;;;;21.84;100.00;93989.63;5053089;28;20185;-62
2022/08/21 06:53:45;;;;;;;11.88;6.43;;;;;;;21.88;100.00;94001.16;5053149;28;20216;-61
2022/08/21 06:56:10;;;;;;;11.15;6.80;;;;;;;21.91;100.00;93985.19;5053129;28;20177;-62
2022/08/21 06:58:36;;;;;;;13.18;6.30;;;;;;;21.95;100.00;93991.53;5052841;28;20814;-61
2022/08/21 07:01:02;;;;;;;10.55;6.32;;;;;;;21.97;100.00;94005.03;5035215;28;20581;-61
2022/08/21 07:03:34;;;;;;;9.43;5.50;;;;;;;21.93;100.00;93983.97;5052944;28;20207;-64
2022/08/21 07:06:00;;;;;;;11.05;6.85;;;;;;;21.97;100.00;94011.03;5053551;28;20685;-65
2022/08/21 07:08:27;;;;;;;15.25;6.10;;;;;;;21.84;100.00;93979.28;5052835;28;20229;-63
2022/08/21 07:10:56;;;;;;;11.75;7.20;;;;;;;22.01;100.00;93998.44;5052843;28;20192;-60
2022/08/21 07:13:21;;;;;;;11.27;6.50;;;;;;;22.21;100.00;94035.25;5052875;28;20547;-63
2022/08/21 07:15:47;;;;;;;8.18;6.15;;;;;;;22.19;100.00;94009.59;5034701;28;20189;-63
2022/08/21 07:18:13;;;;;;;8.68;7.35;;;;;;;22.21;100.00;94032.69;5052528;28;20193;-63
2022/08/21 07:20:39;;;;;;;26.50;16.98;;;;;;;21.76;100.00;93980.34;5052559;28;20209;-63
2022/08/21 07:23:28;;;;;;;12.70;8.18;;;;;;;21.89;100.00;93976.84;5052413;28;20196;-64
2022/08/21 07:25:53;;;;;;;10.98;6.65;;;;;;;22.04;100.00;93967.72;5034686;28;20209;-63
2022/08/21 07:28:19;;;;;;;8.32;6.75;;;;;;;22.53;100.00;94028.91;5052569;28;20196;-61
2022/08/21 07:30:45;;;;;;;10.65;6.22;;;;;;;22.74;100.00;94031.09;5052447;28;20656;-64
2022/08/21 07:33:11;;;;;;;10.25;5.40;;;;;;;22.31;100.00;94056.28;5052617;28;20189;-61
2022/08/21 07:35:36;;;;;;;10.10;5.20;;;;;;;22.25;100.00;94039.00;5052437;28;20200;-64
2022/08/21 07:38:02;;;;;;;8.90;5.28;;;;;;;22.23;100.00;94035.84;5034598;28;20582;-63
2022/08/21 07:40:27;;;;;;;13.80;5.20;;;;;;;22.15;100.00;94023.19;5034457;28;20309;-62
2022/08/21 07:42:53;;;;;;;19.05;12.90;;;;;;;22.20;100.00;94044.06;5051844;28;20193;-61
2022/08/21 07:45:21;;;;;;;15.82;11.98;;;;;;;22.26;100.00;94009.53;5033672;28;20197;-63
2022/08/21 07:47:48;;;;;;;12.18;5.78;;;;;;;22.52;100.00;93998.84;5052121;28;20568;-62
2022/08/21 07:50:14;;;;;;;7.32;5.00;;;;;;;22.89;100.00;94041.03;5052197;28;20206;-61
2022/08/21 07:52:41;;;;;;;7.32;6.28;;;;;;;22.60;100.00;94019.31;5052044;28;20192;-63
2022/08/21 07:55:08;;;;;;;14.52;7.15;;;;;;;22.58;100.00;93998.00;5051729;28;20217;-62
2022/08/21 07:57:34;;;;;;;11.75;6.78;;;;;;;22.43;100.00;93975.03;5052063;28;20262;-62
2022/08/21 07:59:59;;;;;;;10.88;7.18;;;;;;;22.14;100.00;93954.28;5051960;28;20678;-62
2022/08/21 08:02:28;;;;;;;11.68;6.65;;;;;;;22.26;100.00;93983.63;5052011;28;20185;-63
2022/08/21 08:04:54;;;;;;;13.02;7.53;;;;;;;22.47;100.00;93971.00;5034003;28;20217;-62
2022/08/21 08:07:19;;;;;;;9.70;6.65;;;;;;;21.93;100.00;93954.72;5051990;28;20581;-63
2022/08/21 08:09:45;;;;;;;10.80;6.97;;;;;;;22.14;100.00;93980.19;5033898;28;20217;-63
2022/08/21 08:12:11;;;;;;;15.30;6.90;;;;;;;22.06;100.00;93999.38;5034020;28;20195;-62
2022/08/21 08:14:38;;;;;;;13.90;8.13;;;;;;;22.20;100.00;93989.66;5052226;28;20208;-63
2022/08/21 08:17:03;;;;;;;11.27;6.28;;;;;;;22.32;100.00;93964.63;5033889;28;20276;-62
2022/08/21 08:19:29;;;;;;;13.90;7.40;;;;;;;22.26;100.00;93944.78;5051857;28;20293;-63
2022/08/21 08:21:55;;;;;;;11.40;5.57;;;;;;;22.30;100.00;93935.56;5051837;28;20686;-62
2022/08/21 08:24:20;;;;;;;9.90;5.90;;;;;;;22.62;100.00;93993.97;5051978;28;20221;-64
2022/08/21 08:26:46;;;;;;;9.25;5.78;;;;;;;22.47;100.00;93963.22;5051494;28;20212;-63
2022/08/21 08:29:12;;;;;;;10.07;5.93;;;;;;;22.49;100.00;93968.19;5051655;28;20218;-61
2022/08/21 08:31:38;;;;;;;8.32;6.03;;;;;;;22.68;100.00;93994.88;5033724;28;20296;-61
2022/08/21 08:34:04;;;;;;;11.40;6.53;;;;;;;22.69;100.00;94002.44;5051792;28;20209;-63
2022/08/21 08:36:38;;;;;;;13.13;8.48;;;;;;;22.69;100.00;94002.44;5033645;28;20236;-62
2022/08/21 08:39:04;;;;;;;9.52;7.72;;;;;;;22.64;100.00;93986.75;5033631;28;20209;-62
2022/08/21 08:41:32;;;;;;;12.88;8.07;;;;;;;22.58;100.00;94010.97;5033515;28;20201;-60
2022/08/21 08:44:05;;;;;;;14.88;8.05;;;;;;;22.47;100.00;93998.69;5051680;28;20221;-63
2022/08/21 08:46:50;;;;;;;12.65;8.63;;;;;;;22.50;100.00;94024.19;5033640;28;20679;-61
2022/08/21 08:49:22;;;;;;;16.58;10.50;;;;;;;22.68;100.00;94013.81;5051425;28;20216;-63
2022/08/21 08:51:54;;;;;;;16.15;12.27;;;;;;;22.58;100.00;93987.63;5051306;28;20181;-64
2022/08/21 08:54:31;;;;;;;12.20;9.48;;;;;;;22.58;100.00;93979.88;5050713;28;20213;-62
2022/08/21 08:57:01;;;;;;;14.10;8.93;;;;;;;22.78;100.00;94013.28;5033360;28;20185;-62
2022/08/21 08:59:36;;;;;;;11.93;7.95;;;;;;;22.90;100.00;94007.13;5051377;28;20221;-61
2022/08/21 09:02:01;;;;;;;15.32;7.85;;;;;;;22.94;100.00;94018.66;5051168;28;20189;-63
2022/08/21 09:04:28;;;;;;;8.43;6.97;;;;;;;22.94;100.00;94000.50;5050948;28;20213;-64
2022/08/21 09:07:10;;;;;;;13.13;6.88;;;;;;;23.00;100.00;93991.03;5051007;28;20292;-62
2022/08/21 09:09:55;;;;;;;9.80;7.10;;;;;;;22.82;100.00;93973.75;5033201;28;20213;-63
2022/08/21 09:12:35;;;;;;;10.73;7.40;;;;;;;22.70;100.00;93985.09;5051175;28;20182;-62
2022/08/21 09:15:27;;;;;;;10.32;7.05;;;;;;;22.86;100.00;94002.59;5017353;28;20290;-64
2022/08/21 09:18:08;;;;;;;14.43;8.25;;;;;;;22.81;100.00;93999.88;5050657;28;20220;-60
2022/08/21 09:21:00;;;;;;;14.40;7.90;;;;;;;22.83;100.00;94014.19;5051013;28;20186;-60
2022/08/21 09:23:33;;;;;;;8.48;7.00;;;;;;;22.90;100.00;94022.69;5050966;28;20244;-61
2022/08/21 09:26:11;;;;;;;13.18;7.45;;;;;;;23.16;100.00;94026.72;5050808;28;20627;-60
2022/08/21 09:28:36;;;;;;;9.68;6.53;;;;;;;23.55;100.00;94030.53;5050983;28;20877;-62
2022/08/21 09:31:06;;;;;;;9.93;6.07;;;;;;;23.81;100.00;94043.09;5050595;28;20231;-62
2022/08/21 09:33:32;;;;;;;11.35;6.63;;;;;;;23.86;100.00;94050.97;5051184;28;20756;-62
2022/08/21 09:35:58;;;;;;;11.40;6.95;;;;;;;24.05;100.00;94052.50;5050914;28;20181;-60
2022/08/21 09:38:31;;;;;;;10.40;6.53;;;;;;;24.28;100.00;94021.28;5050749;28;20196;-61
2022/08/21 09:41:10;;;;;;;13.32;6.63;;;;;;;24.49;100.00;94064.88;5033067;28;20189;-61
2022/08/21 09:43:37;;;;;;;10.45;6.40;;;;;;;24.80;100.00;94113.91;5050932;28;20226;-62
2022/08/21 09:46:19;;;;;;;12.48;6.25;;;;;;;24.69;100.00;94090.47;5032823;28;20213;-61
2022/08/21 09:48:48;;;;;;;8.20;5.68;;;;;;;24.22;100.00;94076.75;5050883;28;20213;-63
2022/08/21 09:51:24;;;;;;;10.35;6.75;;;;;;;23.93;100.00;94051.66;5050677;28;20565;-60
2022/08/21 09:53:54;;;;;;;9.25;6.35;;;;;;;24.04;100.00;94030.13;5050461;28;20240;-61
2022/08/21 09:59:25;;;;;;;9.38;6.32;;;;;;;23.67;100.00;94026.16;5050871;28;20247;-61
2022/08/21 10:01:52;;;;;;;11.45;6.38;;;;;;;23.42;100.00;94013.38;5050642;28;20186;-61
2022/08/21 10:04:30;;;;;;;9.55;5.53;;;;;;;23.32;100.00;94006.16;5050749;28;20591;-62
2022/08/21 10:07:14;;;;;;;13.30;5.95;;;;;;;23.12;100.00;93973.69;5051202;28;20248;-66
2022/08/21 10:09:41;;;;;;;8.35;6.25;;;;;;;23.37;100.00;93966.56;5054142;28;20208;-62
2022/08/21 10:12:19;;;;;;;11.65;6.32;;;;;;;23.26;100.00;93972.50;5053758;28;20567;-62
2022/08/21 10:15:09;;;;;;;8.52;6.03;;;;;;;23.24;100.00;93964.94;5053813;28;20217;-62
2022/08/21 10:17:41;;;;;;;7.70;5.63;;;;;;;23.31;100.00;93968.22;5053922;28;20684;-63
2022/08/21 10:20:17;;;;;;;9.32;6.28;;;;;;;23.26;100.00;93986.25;5053821;28;20300;-62
2022/08/21 10:23:11;;;;;;;8.15;6.32;;;;;;;23.10;100.00;93949.78;5053719;28;20188;-60
2022/08/21 10:25:43;;;;;;;11.52;6.15;;;;;;;23.30;100.00;93940.69;5053659;28;20200;-64
2022/08/21 10:28:17;;;;;;;11.77;5.50;;;;;;;23.59;100.00;93964.19;5053426;28;20623;-63
2022/08/21 10:31:02;;;;;;;8.18;5.50;;;;;;;23.76;100.00;93973.66;5035688;28;20189;-62
2022/08/21 10:33:28;;;;;;;10.43;5.40;;;;;;;23.92;100.00;94005.94;5035693;28;20224;-62
2022/08/21 10:35:59;;;;;;;7.60;5.35;;;;;;;23.88;100.00;93990.03;5035586;28;20189;-63
2022/08/21 10:38:58;;;;;;;10.35;5.15;;;;;;;24.00;100.00;94027.16;5053445;28;20236;-62
2022/08/21 10:41:45;;;;;;;9.57;5.30;;;;;;;24.14;100.00;94019.94;5053559;28;20231;-64
2022/08/21 10:44:26;;;;;;;10.93;5.30;;;;;;;24.09;100.00;94012.06;5035619;28;20294;-61
2022/08/21 10:46:52;;;;;;;6.90;4.63;;;;;;;24.25;100.00;94006.16;5035492;28;20236;-62
2022/08/21 10:49:44;;;;;;;10.27;5.63;;;;;;;24.46;100.00;94026.31;5053282;28;20217;-61
2022/08/21 10:52:41;;;;;;;7.38;4.50;;;;;;;24.54;100.00;93973.22;5053356;28;20261;-61
2022/08/21 10:55:25;;;;;;;10.07;5.38;;;;;;;25.11;100.00;94000.78;5053306;28;20209;-63
2022/08/21 10:57:56;;;;;;;10.52;5.72;;;;;;;25.28;100.00;94068.47;5053219;28;20748;-61
2022/08/21 11:00:26;;;;;;;10.25;5.30;;;;;;;25.91;96.94;94134.16;5052970;28;20219;-61
2022/08/21 11:03:10;;;;;;;13.10;5.95;;;;;;;26.44;100.00;94051.00;5053022;28;20273;-60
2022/08/21 11:05:49;;;;;;;6.93;4.50;;;;;;;26.87;95.22;94125.13;5053054;28;20256;-61
2022/08/21 11:08:22;;;;;;;7.63;4.90;;;;;;;27.13;93.71;94129.66;5035152;28;20205;-59
2022/08/21 11:10:59;;;;;;;6.65;5.13;;;;;;;27.03;91.27;94138.13;5052961;28;20193;-62
2022/08/21 11:13:50;;;;;;;6.60;4.65;;;;;;;26.56;90.83;94123.94;5052996;28;20189;-62
2022/08/21 11:16:33;;;;;;;6.90;4.32;;;;;;;26.88;91.48;94087.59;5052855;28;20181;-60
2022/08/21 11:19:20;;;;;;;9.00;4.78;;;;;;;27.19;92.28;94081.69;5052786;28;20213;-62
2022/08/21 11:22:01;;;;;;;4.65;3.88;;;;;;;27.78;90.48;94106.00;5052729;28;20177;-61
2022/08/21 11:24:41;;;;;;;6.75;4.00;;;;;;;28.14;87.60;94160.16;5053114;28;20209;-61
2022/08/21 11:27:14;;;;;;;5.20;4.18;;;;;;;27.69;82.29;94108.31;5052731;28;20209;-61
2022/08/21 11:29:43;;;;;;;7.55;4.78;;;;;;;27.51;76.31;94069.47;5034890;28;20218;-62
2022/08/21 11:32:24;;;;;;;8.02;4.63;;;;;;;27.34;75.39;94077.41;5052613;28;20247;-61